createdAt,value
2018-01-31T01:52:20.812Z,7.00
2018-01-31T01:52:55.433Z,6.00
2018-01-31T01:53:55.441Z,6.10
2018-01-31T01:54:55.459Z,6.50
2018-01-31T01:55:55.454Z,7.30
2018-01-31T01:56:55.463Z,6.00
2018-01-31T01:57:55.467Z,6.40
2018-01-31T01:58:55.480Z,6.70
2018-01-31T01:59:55.478Z,7.20
2018-01-31T02:00:55.491Z,6.60
2018-01-31T02:01:55.497Z,6.80
2018-01-31T02:02:55.504Z,7.80
2018-01-31T02:03:55.509Z,6.50
2018-01-31T02:04:55.569Z,7.40
2018-01-31T02:05:55.512Z,8.10
2018-01-31T02:06:55.518Z,8.20
2018-01-31T02:07:55.526Z,7.60
2018-01-31T02:08:55.535Z,8.30
2018-01-31T02:09:55.555Z,8.70
2018-01-31T02:10:55.549Z,8.90
2018-01-31T02:11:55.547Z,7.80
2018-01-31T02:12:55.563Z,9.70
2018-01-31T02:13:55.567Z,9.70
2018-01-31T02:14:55.577Z,9.60
2018-01-31T02:15:55.578Z,9.80
2018-01-31T02:16:55.581Z,9.50
2018-01-31T02:17:55.613Z,11.40
2018-01-31T02:18:55.596Z,12.90
2018-01-31T02:19:56.253Z,14.00
2018-01-31T02:20:55.613Z,14.20
2018-01-31T02:21:55.610Z,14.50
2018-01-31T02:22:55.629Z,14.40
2018-01-31T02:23:55.629Z,15.50
2018-01-31T02:24:55.626Z,16.20
2018-01-31T02:25:55.639Z,15.20
2018-01-31T02:26:55.632Z,16.70
2018-01-31T02:27:55.652Z,15.00
2018-01-31T02:28:55.653Z,13.20
2018-01-31T02:29:55.661Z,14.10
2018-01-31T02:30:55.660Z,15.80
2018-01-31T02:31:55.671Z,13.50
2018-01-31T02:32:55.766Z,14.50
2018-01-31T02:33:55.698Z,14.40
2018-01-31T02:34:55.708Z,15.30
2018-01-31T02:35:55.694Z,15.10
2018-01-31T02:36:55.708Z,17.90
2018-01-31T02:37:55.717Z,16.80
2018-01-31T02:38:55.717Z,15.50
2018-01-31T02:39:55.733Z,17.60
2018-01-31T02:40:55.746Z,17.30
2018-01-31T02:41:55.741Z,18.20
2018-01-31T02:42:55.742Z,18.70
2018-01-31T02:43:55.755Z,16.80
2018-01-31T02:44:55.745Z,17.00
2018-01-31T02:45:55.754Z,17.10
2018-01-31T02:46:55.751Z,17.60
2018-01-31T02:47:55.775Z,19.70
2018-01-31T02:48:55.774Z,18.10
2018-01-31T02:49:55.810Z,20.60
2018-01-31T02:50:55.791Z,19.10
2018-01-31T02:51:55.789Z,19.50
2018-01-31T02:52:55.822Z,20.90
2018-01-31T02:53:55.813Z,20.80
2018-01-31T02:54:55.800Z,20.80
2018-01-31T02:55:55.846Z,21.40
2018-01-31T02:56:55.803Z,20.90
2018-01-31T02:57:55.819Z,20.90
2018-01-31T02:58:55.833Z,21.70
2018-01-31T02:59:55.832Z,21.90
2018-01-31T03:00:55.842Z,24.10
2018-01-31T03:01:55.837Z,24.40
2018-01-31T03:02:55.848Z,22.50
2018-01-31T03:03:55.848Z,24.30
2018-01-31T03:04:55.883Z,22.50
2018-01-31T03:05:55.870Z,22.20
2018-01-31T03:06:55.871Z,23.30
2018-01-31T03:07:55.929Z,22.40
2018-01-31T03:08:55.929Z,25.10
2018-01-31T03:09:55.973Z,25.20
2018-01-31T03:10:56.010Z,25.40
2018-01-31T03:11:55.926Z,25.50
2018-01-31T03:12:55.922Z,24.60
2018-01-31T03:13:55.910Z,24.30
2018-01-31T03:14:55.923Z,23.50
2018-01-31T03:15:55.927Z,26.40
2018-01-31T03:16:55.934Z,24.80
2018-01-31T03:17:55.936Z,26.10
2018-01-31T03:18:55.948Z,27.80
2018-01-31T03:19:55.960Z,27.00
2018-01-31T03:20:55.963Z,27.50
2018-01-31T03:21:55.976Z,29.40
2018-01-31T03:22:55.996Z,28.00
2018-01-31T03:23:56.039Z,27.20
2018-01-31T03:24:55.992Z,27.40
2018-01-31T03:25:55.986Z,28.90
2018-01-31T03:26:56.012Z,28.70
2018-01-31T03:27:56.005Z,28.40
2018-01-31T03:28:56.022Z,27.50
2018-01-31T03:29:56.016Z,26.90
2018-01-31T03:30:56.017Z,30.50
2018-01-31T03:31:56.051Z,29.20
2018-01-31T03:32:56.034Z,26.50
2018-01-31T03:33:56.036Z,29.70
2018-01-31T03:34:56.087Z,30.70
2018-01-31T03:35:56.105Z,28.30
2018-01-31T03:36:56.053Z,29.90
2018-01-31T03:37:56.063Z,29.90
2018-01-31T03:38:56.084Z,28.50
2018-01-31T03:39:56.078Z,28.20
2018-01-31T03:40:56.097Z,31.90
2018-01-31T03:41:56.114Z,32.70
2018-01-31T03:42:56.095Z,31.90
2018-01-31T03:43:56.096Z,25.40
2018-01-31T03:44:56.106Z,31.20
2018-01-31T03:45:56.120Z,28.30
2018-01-31T03:46:56.153Z,28.90
2018-01-31T03:47:56.125Z,29.20
2018-01-31T03:48:56.133Z,29.50
2018-01-31T03:49:56.157Z,30.60
2018-01-31T03:50:56.173Z,27.20
2018-01-31T03:51:56.137Z,28.20
2018-01-31T03:52:56.179Z,25.50
2018-01-31T03:53:56.162Z,26.90
2018-01-31T03:54:56.162Z,26.60
2018-01-31T03:55:56.167Z,30.60
2018-01-31T03:56:56.198Z,27.10
2018-01-31T03:57:56.229Z,27.40
2018-01-31T03:58:56.187Z,27.50
2018-01-31T03:59:56.192Z,25.30
2018-01-31T04:00:56.206Z,27.50
2018-01-31T04:01:56.312Z,28.80
2018-01-31T04:02:56.225Z,28.20
2018-01-31T04:03:56.229Z,25.60
2018-01-31T04:04:56.226Z,25.90
2018-01-31T04:05:56.236Z,23.40
2018-01-31T04:06:56.240Z,24.10
2018-01-31T04:07:56.304Z,23.70
2018-01-31T04:08:56.272Z,24.60
2018-01-31T04:09:56.277Z,25.60
2018-01-31T04:10:56.273Z,24.80
2018-01-31T04:11:56.288Z,19.60
2018-01-31T04:12:56.294Z,21.90
2018-01-31T04:13:56.306Z,18.80
2018-01-31T04:14:56.337Z,22.30
2018-01-31T04:15:56.308Z,23.40
2018-01-31T04:16:56.317Z,21.00
2018-01-31T04:17:56.359Z,24.10
2018-01-31T04:18:56.310Z,22.60
2018-01-31T04:19:56.318Z,24.80
2018-01-31T04:20:56.326Z,25.40
2018-01-31T04:21:56.356Z,23.00
2018-01-31T04:22:56.365Z,25.10
2018-01-31T04:23:56.371Z,23.00
2018-01-31T04:24:56.363Z,18.30
2018-01-31T04:25:56.404Z,20.00
2018-01-31T04:26:56.365Z,18.60
2018-01-31T04:27:56.387Z,20.60
2018-01-31T04:28:56.408Z,18.20
2018-01-31T04:29:56.406Z,20.10
2018-01-31T04:30:56.409Z,21.50
2018-01-31T04:31:56.436Z,20.20
2018-01-31T04:32:56.431Z,20.60
2018-01-31T04:33:56.409Z,16.80
2018-01-31T04:34:56.449Z,15.00
2018-01-31T04:35:56.441Z,17.50
2018-01-31T04:36:56.441Z,19.00
2018-01-31T04:37:56.454Z,16.70
2018-01-31T04:38:56.453Z,14.00
2018-01-31T04:39:56.484Z,18.30
2018-01-31T04:40:56.484Z,17.80
2018-01-31T04:41:56.467Z,17.20
2018-01-31T04:42:56.483Z,20.00
2018-01-31T04:43:56.517Z,12.10
2018-01-31T04:44:56.496Z,16.00
2018-01-31T04:45:56.499Z,17.90
2018-01-31T04:46:56.496Z,17.90
2018-01-31T04:47:56.515Z,18.20
2018-01-31T04:48:56.520Z,19.00
2018-01-31T04:49:56.539Z,18.40
2018-01-31T04:50:56.547Z,18.60
2018-01-31T04:51:56.554Z,17.60
2018-01-31T04:52:56.620Z,16.90
2018-01-31T04:53:56.570Z,16.90
2018-01-31T04:54:56.547Z,17.00
2018-01-31T04:55:56.565Z,16.90
2018-01-31T04:56:56.570Z,16.00
2018-01-31T04:57:56.568Z,16.20
2018-01-31T04:58:56.611Z,15.90
2018-01-31T04:59:56.600Z,17.90
2018-01-31T05:00:56.604Z,18.40
2018-01-31T05:01:56.619Z,18.60
2018-01-31T05:02:56.633Z,18.20
2018-01-31T05:03:56.625Z,17.00
2018-01-31T05:04:56.616Z,17.80
2018-01-31T05:05:56.622Z,16.80
2018-01-31T05:06:56.634Z,15.90
2018-01-31T05:07:56.634Z,17.00
2018-01-31T05:08:56.656Z,14.50
2018-01-31T05:09:56.649Z,16.90
2018-01-31T05:10:56.658Z,18.30
2018-01-31T05:11:56.681Z,17.50
2018-01-31T05:12:56.706Z,17.50
2018-01-31T05:13:56.683Z,17.60
2018-01-31T05:14:56.686Z,16.70
2018-01-31T05:15:56.737Z,17.70
2018-01-31T05:16:56.702Z,20.10
2018-01-31T05:17:56.712Z,18.60
2018-01-31T05:18:56.716Z,18.80
2018-01-31T05:19:56.724Z,19.30
2018-01-31T05:20:56.819Z,19.00
2018-01-31T05:21:56.743Z,15.80
2018-01-31T05:22:56.743Z,17.00
2018-01-31T05:23:56.747Z,16.40
2018-01-31T05:24:56.764Z,16.50
2018-01-31T05:25:56.759Z,18.10
2018-01-31T05:26:56.770Z,15.90
2018-01-31T05:27:56.789Z,14.90
2018-01-31T05:28:56.798Z,16.50
2018-01-31T05:29:56.795Z,15.60
2018-01-31T05:30:56.855Z,14.40
2018-01-31T05:31:56.819Z,16.10
2018-01-31T05:32:56.812Z,16.50
2018-01-31T05:33:56.828Z,17.20
2018-01-31T05:34:56.851Z,16.80
2018-01-31T05:35:56.851Z,17.20
2018-01-31T05:36:56.851Z,17.20
2018-01-31T05:37:56.856Z,15.30
2018-01-31T05:38:56.871Z,15.20
2018-01-31T05:39:56.883Z,16.40
2018-01-31T05:40:56.875Z,17.70
2018-01-31T05:41:56.889Z,18.10
2018-01-31T05:42:56.934Z,15.90
2018-01-31T05:43:56.909Z,15.20
2018-01-31T05:44:56.894Z,19.00
2018-01-31T05:45:56.896Z,18.10
2018-01-31T05:46:56.911Z,17.90
2018-01-31T05:47:56.924Z,18.70
2018-01-31T05:48:56.932Z,18.60
2018-01-31T05:49:56.947Z,16.30
2018-01-31T05:50:56.948Z,17.90
2018-01-31T05:51:56.945Z,19.40
2018-01-31T05:52:56.954Z,18.50
2018-01-31T05:53:56.994Z,15.70
2018-01-31T05:54:56.976Z,15.80
2018-01-31T05:55:57.015Z,15.00
2018-01-31T05:56:56.989Z,16.80
2018-01-31T05:57:57.031Z,15.30
2018-01-31T05:58:57.007Z,18.50
2018-01-31T05:59:57.006Z,12.00
2018-01-31T06:00:57.014Z,15.70
2018-01-31T06:01:57.029Z,14.90
2018-01-31T06:02:57.030Z,15.20
2018-01-31T06:03:57.044Z,13.10
2018-01-31T06:04:57.064Z,15.20
2018-01-31T06:05:57.062Z,16.40
2018-01-31T06:06:57.070Z,17.10
2018-01-31T06:07:57.096Z,15.90
2018-01-31T06:08:57.074Z,15.90
2018-01-31T06:09:57.084Z,15.90
2018-01-31T06:10:57.092Z,17.90
2018-01-31T06:11:57.096Z,16.30
2018-01-31T06:12:57.101Z,16.10
2018-01-31T06:13:57.106Z,17.10
2018-01-31T06:14:57.120Z,17.80
2018-01-31T06:15:57.123Z,16.80
2018-01-31T06:16:57.146Z,14.90
2018-01-31T06:17:57.172Z,13.80
2018-01-31T06:18:57.165Z,13.50
2018-01-31T06:19:57.152Z,11.40
2018-01-31T06:20:57.170Z,14.10
2018-01-31T06:21:57.170Z,14.80
2018-01-31T06:22:57.184Z,16.30
2018-01-31T06:23:57.182Z,14.60
2018-01-31T06:24:57.221Z,15.00
2018-01-31T06:25:57.201Z,16.70
2018-01-31T06:26:57.786Z,13.80
2018-01-31T06:27:57.210Z,15.60
2018-01-31T06:28:57.249Z,15.40
2018-01-31T06:29:57.255Z,15.10
2018-01-31T06:30:57.238Z,14.50
2018-01-31T06:31:57.268Z,15.90
2018-01-31T06:32:57.264Z,14.80
2018-01-31T06:33:57.268Z,17.00
2018-01-31T06:34:57.275Z,12.00
2018-01-31T06:35:57.273Z,10.50
2018-01-31T06:36:57.280Z,7.80
2018-01-31T06:37:57.298Z,12.40
2018-01-31T06:38:57.303Z,12.20
2018-01-31T06:39:57.303Z,11.20
2018-01-31T06:40:57.315Z,11.90
2018-01-31T06:41:57.321Z,12.10
2018-01-31T06:42:57.325Z,8.50
2018-01-31T06:43:57.336Z,7.90
2018-01-31T06:44:57.342Z,9.60
2018-01-31T06:45:57.350Z,11.30
2018-01-31T06:46:57.354Z,9.10
2018-01-31T06:47:57.374Z,7.80
2018-01-31T06:48:57.376Z,8.80
2018-01-31T06:49:57.379Z,9.40
2018-01-31T06:50:57.391Z,10.70
2018-01-31T06:51:57.400Z,8.70
2018-01-31T06:52:57.406Z,10.40
2018-01-31T06:53:57.413Z,10.90
2018-01-31T06:54:57.528Z,10.00
2018-01-31T06:55:57.424Z,11.70
2018-01-31T06:56:57.429Z,12.50
2018-01-31T06:57:57.434Z,11.00
2018-01-31T06:58:57.458Z,8.70
2018-01-31T06:59:57.463Z,10.00
2018-01-31T07:00:57.467Z,7.20
2018-01-31T07:01:57.472Z,7.90
2018-01-31T07:02:57.479Z,6.80
2018-01-31T07:03:57.479Z,8.40
2018-01-31T07:04:57.500Z,5.20
2018-01-31T07:05:57.508Z,8.40
2018-01-31T07:06:57.518Z,6.60
2018-01-31T07:07:57.540Z,5.30
2018-01-31T07:08:57.528Z,6.50
2018-01-31T07:09:57.535Z,7.10
2018-01-31T07:10:57.542Z,6.50
2018-01-31T07:11:57.553Z,5.80
2018-01-31T07:12:57.592Z,6.20
2018-01-31T07:13:57.563Z,8.30
2018-01-31T07:14:57.576Z,7.20
2018-01-31T07:15:57.588Z,6.40
2018-01-31T07:16:57.590Z,5.10
2018-01-31T07:17:57.591Z,5.90
2018-01-31T07:18:57.604Z,6.20
2018-01-31T07:19:57.611Z,7.90
2018-01-31T07:20:57.616Z,7.00
2018-01-31T07:21:57.620Z,6.70
2018-01-31T07:22:57.711Z,6.90
2018-01-31T07:23:57.637Z,7.40
2018-01-31T07:24:57.653Z,7.20
2018-01-31T07:25:57.658Z,6.30
2018-01-31T07:26:57.662Z,5.70
2018-01-31T07:27:57.674Z,5.40
2018-01-31T07:28:57.706Z,7.30
2018-01-31T07:29:57.698Z,6.00
2018-01-31T07:30:57.696Z,5.90
2018-01-31T07:31:57.714Z,6.30
2018-01-31T07:32:57.726Z,7.10
2018-01-31T07:33:57.720Z,5.80
2018-01-31T07:34:57.766Z,5.80
2018-01-31T07:35:57.754Z,6.00
2018-01-31T07:36:57.749Z,5.90
2018-01-31T07:37:57.756Z,5.60
2018-01-31T07:38:57.761Z,5.60
2018-01-31T07:39:57.764Z,5.40
2018-01-31T07:40:57.772Z,6.00
2018-01-31T07:41:57.779Z,6.00
2018-01-31T07:42:57.795Z,3.80
2018-01-31T07:43:57.790Z,2.90
2018-01-31T07:44:57.856Z,2.70
2018-01-31T07:45:57.821Z,2.70
2018-01-31T07:46:57.826Z,2.80
2018-01-31T07:47:57.843Z,2.20
2018-01-31T07:48:57.849Z,2.80
2018-01-31T07:49:57.849Z,2.80
2018-01-31T07:50:57.860Z,3.00
2018-01-31T07:51:57.857Z,3.00
2018-01-31T07:52:57.870Z,2.40
2018-01-31T07:53:57.876Z,3.70
2018-01-31T07:54:57.891Z,4.10
2018-01-31T07:55:57.888Z,2.60
2018-01-31T07:56:57.892Z,3.80
2018-01-31T07:57:57.915Z,4.00
2018-01-31T07:58:57.913Z,3.00
2018-01-31T07:59:57.929Z,3.30
2018-01-31T08:00:57.922Z,3.90
2018-01-31T08:01:57.941Z,2.70
2018-01-31T08:02:57.953Z,1.80
2018-01-31T08:03:57.960Z,3.70
2018-01-31T08:04:57.959Z,2.50
2018-01-31T08:05:57.972Z,2.90
2018-01-31T08:06:57.976Z,2.80
2018-01-31T08:07:57.991Z,3.80
2018-01-31T08:08:57.998Z,4.60
2018-01-31T08:09:58.002Z,4.40
2018-01-31T08:10:58.013Z,4.10
2018-01-31T08:11:58.017Z,3.20
2018-01-31T08:12:58.039Z,4.10
2018-01-31T08:13:58.034Z,4.10
2018-01-31T08:14:58.037Z,4.50
2018-01-31T08:15:58.049Z,4.40
2018-01-31T08:16:58.058Z,5.10
2018-01-31T08:17:58.062Z,4.70
2018-01-31T08:18:58.087Z,4.20
2018-01-31T08:19:58.089Z,4.50
2018-01-31T08:20:58.092Z,4.50
2018-01-31T08:21:58.103Z,3.80
2018-01-31T08:22:58.108Z,3.60
2018-01-31T08:23:58.793Z,4.70
2018-01-31T08:24:58.120Z,3.90
2018-01-31T08:25:58.139Z,3.60
2018-01-31T08:26:58.138Z,4.20
2018-01-31T08:27:58.146Z,4.30
2018-01-31T08:28:58.153Z,3.40
2018-01-31T08:29:58.159Z,3.10
2018-01-31T08:30:58.164Z,3.90
2018-01-31T08:31:58.177Z,3.20
2018-01-31T08:32:58.203Z,3.00
2018-01-31T08:33:58.804Z,3.00
2018-01-31T08:34:58.204Z,3.40
2018-01-31T08:35:58.209Z,2.80
2018-01-31T08:36:58.217Z,3.20
2018-01-31T08:37:58.217Z,3.30
2018-01-31T08:38:58.230Z,2.70
2018-01-31T08:39:58.239Z,2.90
2018-01-31T08:40:58.240Z,3.50
2018-01-31T08:41:58.254Z,3.00
2018-01-31T08:42:58.255Z,2.10
2018-01-31T08:43:58.316Z,3.40
2018-01-31T08:44:58.271Z,3.70
2018-01-31T08:45:58.285Z,4.00
2018-01-31T08:46:58.293Z,3.70
2018-01-31T08:47:58.294Z,3.40
2018-01-31T08:48:58.302Z,3.80
2018-01-31T08:49:58.364Z,3.90
2018-01-31T08:50:58.327Z,3.00
2018-01-31T08:51:58.334Z,2.60
2018-01-31T08:52:58.363Z,4.00
2018-01-31T08:53:58.347Z,3.30
2018-01-31T08:54:58.351Z,3.40
2018-01-31T08:55:58.367Z,2.80
2018-01-31T08:56:58.380Z,2.70
2018-01-31T08:57:58.389Z,2.70
2018-01-31T08:58:58.386Z,3.20
2018-01-31T08:59:58.396Z,3.00
2018-01-31T09:00:58.401Z,3.80
2018-01-31T09:01:58.415Z,3.50
2018-01-31T09:02:58.421Z,3.00
2018-01-31T09:03:58.425Z,3.00
2018-01-31T09:04:58.435Z,3.60
2018-01-31T09:05:58.444Z,3.50
2018-01-31T09:06:58.447Z,3.70
2018-01-31T09:07:58.463Z,2.30
2018-01-31T09:08:58.469Z,2.80
2018-01-31T09:09:58.472Z,2.50
2018-01-31T09:10:58.483Z,2.40
2018-01-31T09:11:59.301Z,2.50
2018-01-31T09:12:58.498Z,2.50
2018-01-31T09:13:58.506Z,2.50
2018-01-31T09:14:58.515Z,2.50
2018-01-31T09:15:58.530Z,2.40
2018-01-31T09:16:58.524Z,1.90
2018-01-31T09:17:58.536Z,2.40
2018-01-31T09:18:58.550Z,2.20
2018-01-31T09:19:58.554Z,2.20
2018-01-31T09:20:58.564Z,2.70
2018-01-31T09:21:58.562Z,3.20
2018-01-31T09:22:58.578Z,2.90
2018-01-31T09:23:58.591Z,2.30
2018-01-31T09:24:58.599Z,2.00
2018-01-31T09:25:58.605Z,2.30
2018-01-31T09:26:58.612Z,2.10
2018-01-31T09:27:58.622Z,1.90
2018-01-31T09:28:58.624Z,1.90
2018-01-31T09:29:58.629Z,2.80
2018-01-31T09:30:58.643Z,3.20
2018-01-31T09:31:58.646Z,2.50
2018-01-31T09:32:58.656Z,3.30
2018-01-31T09:33:58.667Z,3.20
2018-01-31T09:34:59.304Z,3.00
2018-01-31T09:35:58.685Z,4.10
2018-01-31T09:36:58.691Z,2.70
2018-01-31T09:37:58.696Z,2.80
2018-01-31T09:38:58.698Z,3.20
2018-01-31T09:39:58.712Z,3.10
2018-01-31T09:40:58.725Z,3.20
2018-01-31T09:41:58.737Z,2.60
2018-01-31T09:42:58.742Z,2.20
2018-01-31T09:43:58.750Z,1.80
2018-01-31T09:44:58.874Z,2.20
2018-01-31T09:45:58.763Z,2.00
2018-01-31T09:46:58.774Z,2.30
2018-01-31T09:47:58.780Z,2.90
2018-01-31T09:48:58.787Z,2.70
2018-01-31T09:49:58.800Z,2.60
2018-01-31T09:50:58.810Z,3.00
2018-01-31T09:51:59.810Z,2.40
2018-01-31T09:53:02.451Z,3.20
2018-01-31T09:53:58.880Z,2.80
2018-01-31T09:54:58.863Z,3.50
2018-01-31T09:55:58.850Z,3.20
2018-01-31T09:56:58.845Z,3.80
2018-01-31T09:57:58.870Z,3.60
2018-01-31T09:58:58.867Z,3.90
2018-01-31T09:59:58.875Z,3.60
2018-01-31T10:00:58.885Z,2.40
2018-01-31T10:01:58.893Z,2.90
2018-01-31T10:02:59.006Z,2.60
2018-01-31T10:03:58.912Z,1.90
2018-01-31T10:04:58.930Z,1.50
2018-01-31T10:05:58.928Z,1.90
2018-01-31T10:06:58.958Z,1.50
2018-01-31T10:07:58.934Z,1.90
2018-01-31T10:08:58.982Z,2.50
2018-01-31T10:09:58.950Z,2.20
2018-01-31T10:10:58.983Z,2.50
2018-01-31T10:11:58.969Z,1.60
2018-01-31T10:12:59.056Z,1.50
2018-01-31T10:13:58.987Z,2.20
2018-01-31T10:14:58.985Z,2.10
2018-01-31T10:15:59.007Z,2.10
2018-01-31T10:16:59.021Z,1.20
2018-01-31T10:17:59.016Z,1.90
2018-01-31T10:18:59.025Z,2.30
2018-01-31T10:19:59.032Z,1.90
2018-01-31T10:20:59.035Z,1.60
2018-01-31T10:21:59.047Z,1.60
2018-01-31T10:22:59.108Z,1.30
2018-01-31T10:23:59.067Z,1.90
2018-01-31T10:24:59.078Z,1.80
2018-01-31T10:25:59.096Z,1.80
2018-01-31T10:26:59.090Z,2.60
2018-01-31T10:27:59.104Z,2.70
2018-01-31T10:28:59.100Z,2.10
2018-01-31T10:29:59.122Z,2.30
2018-01-31T10:30:59.126Z,2.30
2018-01-31T10:31:59.131Z,2.10
2018-01-31T10:32:59.129Z,1.60
2018-01-31T10:33:59.145Z,1.90
2018-01-31T10:34:59.164Z,1.60
2018-01-31T10:35:59.192Z,1.30
2018-01-31T10:36:59.170Z,1.80
2018-01-31T10:37:59.194Z,1.60
2018-01-31T10:38:59.176Z,1.50
2018-01-31T10:39:59.192Z,1.20
2018-01-31T10:40:59.216Z,1.90
2018-01-31T10:41:59.209Z,1.90
2018-01-31T10:42:59.214Z,1.60
2018-01-31T10:43:59.227Z,1.50
2018-01-31T10:44:59.232Z,1.40
2018-01-31T10:45:59.240Z,1.70
2018-01-31T10:46:59.246Z,1.60
2018-01-31T10:47:59.252Z,2.00
2018-01-31T10:48:59.259Z,1.30
2018-01-31T10:49:59.271Z,1.60
2018-01-31T10:50:59.322Z,1.70
2018-01-31T10:51:59.286Z,1.80
2018-01-31T10:52:59.291Z,1.80
2018-01-31T10:57:59.336Z,1.40
2018-01-31T10:58:59.351Z,1.40
2018-01-31T10:59:59.391Z,1.50
2018-01-31T11:00:59.816Z,1.80
2018-01-31T11:01:59.361Z,1.70
2018-01-31T11:02:59.383Z,1.70
2018-01-31T11:03:59.377Z,1.50
2018-01-31T11:04:59.389Z,1.60
2018-01-31T11:05:59.392Z,1.90
2018-01-31T11:06:59.408Z,1.60
2018-01-31T11:07:59.405Z,1.90
2018-01-31T11:08:59.418Z,2.10
2018-01-31T11:09:59.428Z,2.10
2018-01-31T11:10:59.438Z,1.90
2018-01-31T11:11:59.444Z,1.40
2018-01-31T11:12:59.450Z,1.40
2018-01-31T11:13:59.517Z,2.30
2018-01-31T11:14:59.475Z,1.70
2018-01-31T11:15:59.476Z,1.40
2018-01-31T11:16:59.495Z,1.50
2018-01-31T11:17:59.495Z,1.20
2018-01-31T11:18:59.502Z,1.80
2018-01-31T11:19:59.507Z,1.30
2018-01-31T11:20:59.516Z,1.70
2018-01-31T11:21:59.524Z,1.10
2018-01-31T11:22:59.534Z,1.20
2018-01-31T11:23:59.542Z,1.40
2018-01-31T11:24:59.551Z,1.40
2018-01-31T11:25:59.553Z,1.20
2018-01-31T11:26:59.564Z,1.10
2018-01-31T11:27:59.569Z,1.30
2018-01-31T11:28:59.580Z,1.00
2018-01-31T11:29:59.591Z,0.90
2018-01-31T11:30:59.590Z,0.90
2018-01-31T11:31:59.600Z,0.80
2018-01-31T11:32:59.610Z,1.00
2018-01-31T11:33:59.621Z,0.70
2018-01-31T11:34:59.633Z,0.70
2018-01-31T11:36:59.634Z,0.60
2018-01-31T11:37:59.649Z,0.60
2018-01-31T11:38:59.698Z,0.80
2018-01-31T11:39:59.659Z,0.60
2018-01-31T11:40:59.685Z,0.60
2018-01-31T11:41:59.677Z,0.70
2018-01-31T11:42:59.691Z,0.70
2018-01-31T11:43:59.701Z,0.80
2018-01-31T11:44:59.691Z,0.70
2018-01-31T11:45:59.708Z,0.70
2018-01-31T11:46:59.718Z,0.70
2018-01-31T11:47:59.730Z,0.60
2018-01-31T11:48:59.735Z,0.60
2018-01-31T11:49:59.738Z,0.60
2018-01-31T11:50:59.754Z,0.60
2018-01-31T11:52:00.325Z,0.80
2018-01-31T11:52:59.765Z,0.70
2018-01-31T11:53:59.769Z,0.60
2018-01-31T11:54:59.781Z,0.70
2018-01-31T11:55:59.790Z,0.80
2018-01-31T11:56:59.791Z,0.70
2018-01-31T11:57:59.812Z,0.70
2018-01-31T11:58:59.821Z,0.80
2018-01-31T11:59:59.818Z,0.60
2018-01-31T12:00:59.832Z,0.70
2018-01-31T12:01:59.836Z,0.60
2018-01-31T12:04:29.746Z,0.60
2018-01-31T12:06:03.437Z,0.70
2018-01-31T12:07:03.455Z,0.80
2018-01-31T12:08:03.444Z,0.80
2018-01-31T12:09:03.485Z,0.80
2018-01-31T12:10:03.460Z,0.80
2018-01-31T12:11:03.471Z,0.70
2018-01-31T12:12:03.481Z,0.80
2018-01-31T12:13:03.498Z,0.70
2018-01-31T12:14:03.498Z,0.70
2018-01-31T12:15:03.528Z,0.70
2018-01-31T12:16:03.525Z,0.80
2018-01-31T12:17:03.520Z,0.80
2018-01-31T12:18:03.522Z,0.80
2018-01-31T12:19:03.545Z,1.10
2018-01-31T12:20:03.549Z,1.20
2018-01-31T12:21:03.552Z,1.20
2018-01-31T12:22:03.566Z,1.10
2018-01-31T12:23:03.563Z,1.60
2018-01-31T12:24:03.576Z,1.30
2018-01-31T12:25:03.589Z,1.00
2018-01-31T12:26:03.593Z,1.70
2018-01-31T12:27:03.588Z,2.20
2018-01-31T12:28:03.608Z,1.70
2018-01-31T12:29:03.619Z,0.80
2018-01-31T12:30:03.618Z,0.60
2018-01-31T12:31:03.638Z,0.50
2018-01-31T12:32:03.632Z,0.60
2018-01-31T12:33:03.626Z,0.40
2018-01-31T12:34:03.642Z,0.40
2018-01-31T12:35:03.650Z,0.50
2018-01-31T12:36:03.691Z,0.60
2018-01-31T12:37:03.677Z,2.30
2018-01-31T12:38:03.679Z,1.20
2018-01-31T12:39:03.673Z,1.00
2018-01-31T12:40:03.685Z,0.60
2018-01-31T12:41:03.700Z,0.60
2018-01-31T12:42:03.723Z,0.50
2018-01-31T12:43:03.703Z,0.50
2018-01-31T12:44:03.720Z,0.50
2018-01-31T12:45:03.728Z,0.70
2018-01-31T12:46:03.814Z,0.60
2018-01-31T12:47:03.730Z,0.70
2018-01-31T12:48:03.744Z,0.50
2018-01-31T12:49:03.742Z,0.70
2018-01-31T12:50:03.761Z,0.60
2018-01-31T12:51:03.766Z,0.70
2018-01-31T12:52:03.773Z,0.70
2018-01-31T12:53:03.773Z,0.80
2018-01-31T12:54:03.784Z,0.60
2018-01-31T12:55:03.791Z,0.70
2018-01-31T12:56:03.796Z,0.70
2018-01-31T12:57:03.806Z,0.70
2018-01-31T12:58:03.808Z,0.50
2018-01-31T12:59:03.870Z,0.50
2018-01-31T13:00:03.817Z,0.50
2018-01-31T13:01:03.830Z,0.50
2018-01-31T13:02:03.837Z,0.70
2018-01-31T13:03:03.849Z,0.70
2018-01-31T13:04:03.851Z,0.60
2018-01-31T13:05:03.851Z,0.50
2018-01-31T13:06:03.863Z,0.50
2018-01-31T13:07:03.869Z,0.50
2018-01-31T13:08:03.866Z,0.50
2018-01-31T13:09:03.894Z,0.80
2018-01-31T13:10:03.901Z,0.40
2018-01-31T13:11:03.895Z,0.60
2018-01-31T13:12:03.903Z,0.50
2018-01-31T13:13:03.912Z,0.50
2018-01-31T13:14:03.908Z,0.60
2018-01-31T13:15:03.923Z,0.60
2018-01-31T13:16:03.933Z,0.70
2018-01-31T13:17:03.932Z,0.60
2018-01-31T13:18:03.943Z,0.50
2018-01-31T13:19:03.947Z,0.60
2018-01-31T13:20:03.954Z,0.60
2018-01-31T13:21:03.963Z,0.60
2018-01-31T13:22:03.971Z,0.50
2018-01-31T13:23:03.981Z,0.50
2018-01-31T13:24:03.974Z,0.70
2018-01-31T13:25:03.983Z,0.80
2018-01-31T13:26:04.045Z,1.70
2018-01-31T13:27:04.000Z,2.50
2018-01-31T13:28:04.019Z,0.70
2018-01-31T13:29:04.024Z,3.30
2018-01-31T13:30:04.025Z,3.30
2018-01-31T13:31:04.043Z,1.40
2018-01-31T13:32:04.038Z,1.00
2018-01-31T13:33:04.053Z,1.30
2018-01-31T13:34:04.052Z,0.60
2018-01-31T13:35:04.077Z,0.90
2018-01-31T13:36:04.073Z,0.60
2018-01-31T13:37:04.085Z,0.80
2018-01-31T13:38:04.092Z,1.30
2018-01-31T13:39:04.097Z,0.60
2018-01-31T13:40:04.091Z,0.60
2018-01-31T13:41:04.097Z,0.80
2018-01-31T13:42:04.112Z,0.70
2018-01-31T13:43:04.113Z,0.60
2018-01-31T13:44:04.127Z,0.70
2018-01-31T13:45:04.128Z,0.70
2018-01-31T13:46:04.149Z,0.70
2018-01-31T13:47:04.131Z,0.70
2018-01-31T13:48:04.138Z,1.00
2018-01-31T13:49:04.158Z,0.60
2018-01-31T13:50:04.165Z,0.60
2018-01-31T13:51:04.167Z,0.80
2018-01-31T13:52:04.180Z,0.90
2018-01-31T13:53:04.190Z,0.90
2018-01-31T13:54:04.193Z,0.80
2018-01-31T13:55:04.211Z,0.70
2018-01-31T13:56:04.202Z,0.70
2018-01-31T13:57:04.214Z,0.90
2018-01-31T13:58:04.224Z,1.00
2018-01-31T13:59:04.229Z,0.90
2018-01-31T14:00:04.230Z,0.70
2018-01-31T14:01:04.231Z,1.00
2018-01-31T14:02:04.246Z,0.80
2018-01-31T14:03:04.244Z,0.90
2018-01-31T14:04:04.261Z,1.00
2018-01-31T14:05:04.270Z,0.90
2018-01-31T14:06:04.268Z,0.80
2018-01-31T14:07:04.282Z,1.00
2018-01-31T14:08:04.282Z,1.00
2018-01-31T14:09:04.305Z,1.00
2018-01-31T14:10:04.841Z,0.70
2018-01-31T14:11:04.311Z,0.80
2018-01-31T14:12:04.314Z,0.90
2018-01-31T14:13:04.325Z,1.10
2018-01-31T14:14:04.334Z,0.90
2018-01-31T14:15:04.436Z,0.70
2018-01-31T14:16:04.343Z,1.10
2018-01-31T14:17:04.354Z,0.90
2018-01-31T14:18:04.358Z,1.10
2018-01-31T14:19:04.365Z,0.90
2018-01-31T14:20:04.375Z,1.00
2018-01-31T14:21:04.374Z,1.40
2018-01-31T14:22:04.384Z,1.30
2018-01-31T14:23:04.396Z,1.10
2018-01-31T14:24:04.397Z,1.00
2018-01-31T14:25:04.400Z,1.10
2018-01-31T14:26:04.423Z,1.50
2018-01-31T14:27:04.418Z,1.10
2018-01-31T14:28:04.418Z,1.30
2018-01-31T14:29:04.427Z,1.00
2018-01-31T14:30:04.448Z,1.00
2018-01-31T14:31:04.452Z,0.90
2018-01-31T14:32:04.462Z,1.30
2018-01-31T14:33:04.454Z,1.30
2018-01-31T14:34:04.457Z,1.60
2018-01-31T14:35:04.477Z,1.00
2018-01-31T14:36:04.490Z,1.00
2018-01-31T14:37:04.486Z,1.60
2018-01-31T14:38:04.558Z,1.20
2018-01-31T14:39:04.501Z,1.70
2018-01-31T14:40:04.515Z,1.50
2018-01-31T14:41:04.513Z,1.50
2018-01-31T14:42:04.536Z,1.70
2018-01-31T14:43:04.530Z,1.60
2018-01-31T14:44:04.531Z,2.10
2018-01-31T14:45:04.556Z,2.30
2018-01-31T14:46:04.555Z,2.00
2018-01-31T14:47:04.581Z,2.30
2018-01-31T14:48:04.596Z,2.50
2018-01-31T14:49:04.599Z,2.10
2018-01-31T14:50:04.583Z,1.60
2018-01-31T14:51:04.594Z,1.40
2018-01-31T14:52:04.606Z,1.40
2018-01-31T14:53:04.597Z,1.50
2018-01-31T14:54:04.616Z,1.30
2018-01-31T14:55:04.633Z,0.90
2018-01-31T14:56:04.613Z,1.20
2018-01-31T14:57:04.629Z,1.40
2018-01-31T14:58:04.649Z,1.00
2018-01-31T14:59:04.641Z,1.10
2018-01-31T15:00:04.644Z,0.80
2018-01-31T15:01:04.660Z,1.00
2018-01-31T15:02:04.701Z,1.20
2018-01-31T15:03:04.673Z,1.00
2018-01-31T15:04:04.684Z,0.70
2018-01-31T15:05:04.701Z,0.80
2018-01-31T15:06:04.700Z,1.10
2018-01-31T15:07:04.709Z,1.10
2018-01-31T15:08:04.702Z,0.70